Timeline UpdatesTrip UpdatesNews PostsPvt PostsTravel TipsAdmin PostsConv PostsFollowed PostsChat RequestsBlog PostsPNR Posts

Disclaimer
Search
 
 
Thu Jul 31, 2014 23:07:35 ISTHomeTrainsΣChainsAtlasPNRForumGalleryNewsFAQTripsMembersLoginFeedback
No Recent News for this Train
Other Trains in the News **new
Latest...
.
Tue Jul 23, 2013 (11:28AM)
⇐ Return Journey: Train# 11042

11041/Mumbai CST- Chennai Express

Nov 10 2013 (6:55PM)
Change Departure Station:
Change Arrival Station:
Post a Train Travel TipPost a Train Travel Tip **new
Post a Comment/Question/Picture/VideoPost a Comment/Question/Picture/Video
Pantry/Catering
✓ Pantry Car Avbl
✓ Catering Avbl
RSA - Rake Sharing
11028 Chennai Mumbai Mail
Rake/Coach Composition
LOCO-SLR-GS-S10-S9-S8-S7-S6-S5-S4-PC-S3-S2-S1-B1-A1-RMS-GS-SLR
Loco
CSTM-GTL=> KYN WDM-3D/WDM-3A/WDG-3A GTL-MAS=> RPM/LGD WAP-4
News    PNR    Forum    Time-Table    Availability    Fare Chart    Map    Arr/Dep History    Trips    Gallery    ΣChains    X/O    Timeline    
Travel Time: 10h 15m    15 halts    Distance: 448 km    Avg Speed: 43 km/hr
Type: Mail/Express
Zone: CR/Central
Departs @ 06:30 (Avg 31m late)
Platform# 5
SMTWTFS
Guntakal Junction/GTL 
Arrives @ 16:45 (Avg 2m late)
Platform# 4
SMTWTFS
Chennai Central/MAS 

15 halts. 82 intermediate Stations between Guntakal Junction and Chennai Central

Hide intermediate Stations  

#CodeStation NameX/OArrivesAvgDepartsAvgHaltPFDay#KmSpeedElevZoneAddress
1CSTMMumbai CST (18)  -14:00+3141-833.44310mCRMumbai 400001, Maharashtra
1.1MSDMumbai Masjid (4)  14:01-14:01-  1-832.5 4310mCRMumbai, Maharashtra
1.2SNRDMumbai Sandhurst Road (4)X  14:03-14:03-  1-831.4 439mCRMumbai, Maharashtra
1.3BYByculla (4)  14:05-14:05-  1-829.6 439mCRMumbai 400027, Maharashtra
1.4CHGMumbai Chinchpokli (2)  14:07-14:07-  1-828.4 436mCRMumbai, Maharashtra
1.5CRDMumbai Currey Road (2)  14:08-14:08-  1-827.6 435mCRMumbai, Maharashtra
1.6PRMumbai Parel (4)  14:11-14:11-  1-825.8 436mCRMumbai, Maharashtra
2DRMumbai Dadar Central (8)  14:12+514:15+43m51-824.8637mCRMumbai 400014, Maharashtra
2.1MTNMumbai Matunga (4)X  14:16-14:16-  1-823.4 637mCRMumbai, Maharashtra
2.2SINMumbai Sion (4)  14:19-14:19-  1-820.7 637mCRMumbai, Maharashtra
2.3CLAKurla Junction (8)  14:21-14:21-  1-818.1 638mCRMumbai, Maharashtra
2.4LTTMumbai Lokmanya Tilak Terminus (5)  14:22-14:22-  1-817.0 637mCRMumbai, Maharashtra
2.5VVHVidyavihar (2)X  14:24-14:24-  1-815.7 638mCRMumbai, Maharashtra
2.6GCGhatkopar (4)  14:25-14:25-  1-814.3 6311mCRMumbai 400086, Maharashtra
2.7VKVikhroli (4)  14:28-14:28-  1-810.7 6310mCRMumbai, Maharashtra
2.8KJMGKanjur Marg (2)  14:30-14:30-  1-808.8 635mCRMumbai, Maharashtra
2.9BNDBhandup (4)  14:32-14:32-  1-807.0 637mCRMumbai 400078, Maharashtra
2.10NHUNahur (2)X  14:33-14:33-  1-805.3 635mCRMumbai, Maharashtra
2.11MLNDMulund (4)X  14:36-14:36-  1-803.1 6312mCRMumbai, Maharashtra
3TNAThane (10)X  14:38+714:40+72m51-800.56110mCRThane, Maharashtra
3.1KLVAKalva (2)  14:42-14:42-  1-798.0 615mCRKalva, Maharashtra
3.2MBQMumbra (2)  14:47-14:47-  1-793.5 618mCRMumbra, Maharashtra
3.3DIVADiva Junction (6)  14:49-14:49-  1-791.0 613mCRJn Pt TNA/PNVL/KYN/BSR Diva, Maharashtra
3.4KOPRKopar (4)  14:54-14:54-  1-786.6 610mCRKopar, Maharashtra
3.5DIDombivli (5)  14:55-14:55-  1-785.3 6111mCRDombivli, Maharashtra
3.6THKThakurli (2)  14:56-14:56-  1-784.0 6114mCRThakurli, Maharashtra
4KYNKalyan Junction (8)  15:00+815:05+85m51-780.36510mCRKalyan 421301, Maharashtra
4.1VLDIVithalwadi (2)  15:07-15:07-  1-778.0 6513mCRVitthalwadi, Maharashtra
4.2ULNRUlhasnagar (2)  15:09-15:09-  1-776.1 6514mCRUlhasnagar Camp No.3, Maharashtra
4.3ABHAmbernath (3)  15:11-15:11-  1-773.7 6523mCRMaharashtra 421502, Maharashtra
4.4BUDBadlapur (3)  15:18-15:18-  1-766.0 6518mCRBadlapur-421 503, Maharashtra
4.5VGIVangani (2)  15:28-15:28-  1-755.2 6542mCRVangani, Maharashtra
4.6SHLUShelu (2)  15:32-15:32-  1-751.2 6540mCRShelu, Maharashtra
4.7NRLNeral Junction (2)  15:36-15:36-  1-747.1 6542mCRNeral-410101 Dist. Raigad, Maharashtra
4.8BVSBhivpuri Road (2)  15:42-15:42-  1-740.4 6550mCRBhivpuri Road, Maharashtra
5KJTKarjat Junction (4)  15:48+1215:50+162m11-733.53657mCRKarjat, Maharashtra
5.1PDIPalasdhari (4)  15:55-15:55-  1-730.6 3667mCRDist Raigad, Maharashtra
5.2TKWThakurvadi  16:11-16:11-  1-721.1 36281mCRKhandala, Maharashtra
5.3NNCNNagnath Cabin (1)  16:11-16:11-  1-720.7 36289mCRDolavali Khopoli (Chinchavali Marge), Maharashtra
5.4NAGCNagargaliX  16:17-16:17-  1-717.6 36354mCRKhopoli, Maharashtra
5.5MHLCMonkey Hill (2)X  16:23-16:23-  1-713.8 36414mCRKhandala, Maharashtra
5.6KADKhandala (3)X  16:32-16:32-  1-708.6 36545mCRKhandala 410301, Maharashtra
6LNLLonavala (3)  16:38+716:40+92m11-704.875623mCRLonavala 410401, Maharashtra
6.1MVLMalavli (2)X  16:46-16:46-  1-697.7 75616mCRMalavli 410405, Maharashtra
6.2KMSTKamshet (2)X  16:53-16:53-  1-689.0 75607mCRDist. Pune 410405, Maharashtra
6.3KNHEKanhe (2)  16:56-16:56-  1-684.4 75626mCRKanhe, Maharashtra
6.4VDNVadgaon (2)  17:00-17:00-  1-679.3 75623mCRVadgaon, Maharashtra
6.5TGNTalegaon (2)  17:04-17:04-  1-675.3 75619mCRTalegaon Dabhade 410501, Maharashtra
6.6GRWDGhorawadi (2)X  17:06-17:06-  1-672.3 75596mCRGhorawadi, Maharashtra
6.7SLRWShelarwadi (2)  17:08-17:08-  1-669.5 75594mCRShelarwadi Dist. Pune, Maharashtra
6.8BGWIBegdaewadi  17:08-17:08-  1-669.3 75594mCRTalegaon, Maharashtra
6.9BGWBegdewadi (2)X  17:08-17:08-  1-669.2 75594mCRBegdewadi, Maharashtra
6.10DEHRDehu Road (4)  17:11-17:11-  1-665.7 75611mCRDehu 412101, Maharashtra
6.11AKRDAkurdi (2)  17:15-17:15-  1-660.7 75583mCRPune 411035, Maharashtra
6.12CCHChinchwad (4)  17:18-17:18-  1-657.5 75573mCRPune 411033, Maharashtra
6.13PMPPimpri (2)O  17:20-17:20-  1-655.3 75570mCRPune 411018, Maharashtra
6.14KSWDKasarwadi (2)  17:22-17:22-  1-652.7 75558mCRPune 411034, Maharashtra
6.15DAPDDapodi (2)  17:24-17:24-  1-649.3 75558mCRPune 411012, Maharashtra
7KKKhadki (3)X  17:26+1617:28+162m11-647.211562mCRPune 411003, Maharashtra
7.1SVJRShivajinagar (2)  17:47-17:47-  1-643.6 11549mCRPune 411005, Maharashtra
8PUNEPune Junction (6)  18:00+318:10+710m41-641.260556mCRPune 411001, Maharashtra
8.1GPRWGhorpuri West (2)  18:12-18:12-  1-639.0 60552mCRPune 411001, Maharashtra
8.2HDPHadapsar (3)X  18:16-18:16-  1-635.4 60554mCRPune 411028, Maharashtra
8.3MJBKManjari Budruk (2)  18:21-18:21-  1-630.4 60550mCRPune 412307, Maharashtra
8.4LONILoni (2)X  18:26-18:26-  1-624.8 60541mCRPune 412201, Maharashtra
8.5URIUruli (2)X  18:39-18:39-  1-612.4 60553mCRDist. Pune 412202, Maharashtra
8.6YTYevat (2)  18:51-18:51-  1-599.8 60558mCRDist. Pune 412214, Maharashtra
8.7KTTKhutbav (2)X  18:57-18:57-  1-593.5 60558mCRShirur-Daund Rd Daund, Maharashtra
8.8KDGKedgaon (2)  19:04-19:04-  1-587.2 60544mCRDist. Pune 412203, Maharashtra
8.9KDTNKadethan  19:09-19:09-  1-582.0 60532mCRDaund, Maharashtra
8.10PAAPatas (3)X  19:13-19:13-  1-577.2 60532mCRDist. Pune 412219, Maharashtra
8.11DDAPDaund Patas Road  19:22-19:22-  1-568.4 60519mCRDaund, Maharashtra
8.12DDJADaund Goods Yard (2)  19:23-19:23-  1-567.3 60515mCRNew Daund, Maharashtra
8.13DDAMDaund Marshalling Yard  19:24-19:24-  1-566.3 60517mCROld Daund, Maharashtra
9DDDaund Junction (7)  19:25+819:30+135m61-565.649521mCRNew Daund Dist. Pune 413801, Maharashtra
9.1BRBBoribial  19:43-19:43-  1-555.3 49527mCRNew Daund, Maharashtra
9.2MLMMalthan  19:53-19:53-  1-547.0 49524mCRDaund, Maharashtra
9.3BGVNBhigwan (2)X  20:04-20:04-  1-537.9 49509mCRDaund, Maharashtra
9.4JNTRJinti Road  20:18-20:18-  1-526.4 49530mCRDaund, Maharashtra
9.5PRWDParewadi (2)X  20:30-20:30-  1-517.2 49515mCRIndapur, Maharashtra
9.6WSBWashimbe (1)  20:39-20:39-  1-510.0 49529mCRWashimbe, Maharashtra
9.7PPJPophlajX  20:50-20:50-  1-500.6 49529mCRJeur - Kettur Road, Maharashtra
9.8JEURJeur (1)X  21:01-21:01-  1-491.9 49526mCRJeur, Maharashtra
9.9BLNIBhalwani (2)  21:10-21:10-  1-484.1 49521mCRBhalwani, Maharashtra
9.10KEMKem (2)  21:21-21:21-  1-475.8 49548mCRKem, Maharashtra
9.11DHSDhavalas (2)X  21:31-21:31-  1-467.3 49543mCRDhavalas, Maharashtra
10KWVKurduvadi Junction (4)X  21:43+2321:45+342m21-457.753516mCRKurduvadi Dist-Solapur, Maharashtra
10.1WDSWadsingeX  21:54-21:54-  1-449.5 53493mCRWadsinge, Maharashtra
10.2MAMadha (2)  22:03-22:03-  1-441.8 53481mCRSolapur, Maharashtra
10.3WKAVakav (1)X  22:11-22:11-  1-434.6 53470mCRSolapur, Maharashtra
10.4AAGAngar  22:19-22:19-  1-428.2 53470mCRAnagar Railway Station, Maharashtra
10.5MKPTMalikpethX  22:27-22:27-  1-421.2 53464mCRState Highway 74, Maharashtra
10.6MOMohol (2)  22:37-22:37-  1-412.0 53458mCRSolapur, Maharashtra
10.7MVEMundhewadi (2)  22:46-22:46-  1-404.0 53462mCRMundhewadi, Maharashtra
10.8PKPakni (2)X  22:56-22:56-  1-395.1 53451mCRPakni, Maharashtra
10.9BALEBale (2)  23:08-23:08-  1-385.1 53452mCRSolapur, Maharashtra
11SURSolapur (5)X  23:15+2523:25+2710m31-378.766461mCRSolapur 413001, Maharashtra
11.1TKWDTikekarwadi (2)  23:31-23:31-  1-371.8 66477mCRSolapur, Maharashtra
11.2HGHotgi Junction (3)X  23:39-23:39-  1-363.7 66473mCRHotgi 413215, Maharashtra
11.3TLTTilati  23:47-23:47-  1-354.4 66454mCRAkalkot Road, Maharashtra
11.4AKORAkalkot Road (2)  23:57-23:57-  1-343.4 66456mCRDist Solapur, Maharashtra
11.5NGSNagansur  00:02-00:02-  2-338.0 66487mCRSolapur, Maharashtra
11.6BOTBoroti  00:10-00:10-  2-329.5 66466mCRSolapur, Maharashtra
11.7DUDDudhani (2)  00:23-00:23-  2-315.5 66457mCRSolapur, Maharashtra
11.8KUIKulali  00:32-00:32-  2-305.9 66455mCRBhognalli - Ravoor - Dudhani Rd, Karnataka
11.9GDGNGaudgaon  00:38-00:38-  2-298.7 66444mCRBhognalli Sindnoor Rd, Karnataka
11.10GURGanagapur Road  00:44-00:44-  2-292.5 66445mCRDist Gulbarga, Karnataka
11.11HHDHunsihadgil  00:50-00:50-  2-286.2 66479mCRGulburga, Karnataka
11.12SVGSawalgi  00:56-00:56-  2-278.8 66462mCRGulburga, Karnataka
11.13BBDBabladX  01:03-01:03-  2-271.5 66461mCRGulburga, Karnataka
12GRGulbarga (4)X  01:08+3001:10+312m12-266.157458mCRGulbarga 585101, Karnataka
12.1HQRHirenanduruX  01:19-01:19-  2-257.3 57469mCRNandoor K, Karnataka
12.2MRMarturX  01:27-01:27-  2-249.7 57427mCRGulbarga, Karnataka
13SDBShahabad (3)X  01:38+2701:40+282m22-239.412403mCRShahabad, Karnataka
14WADIWadi Junction (4)X  02:30+302:35+75m22-229.381431mCRWadi, Karnataka
14.1NWNalwar (2)X  02:45-02:45-  2-215.6 81406mSCRGulbarga, Karnataka
14.2SPHLShampurhalliX  02:50-02:50-  2-208.6 81415mSCRShampurhalli, Karnataka
14.3TGDEThangundiX  02:57-02:57-  2-199.6 81383mSCRThangundi, Karnataka
15YGYadgir (3)  03:04+1303:06+122m12-190.290369mSCRYadgir, Karnataka
15.1LGRELingiri (2)X  03:13-03:13-  2-179.8 90374mSCR585202, Karnataka
15.2SADPSaidapur (3)X  03:21-03:21-  2-167.0 90377mSCRYadgir Dist., Karnataka
15.3CGTAChegunta (2)X  03:29-03:29-  2-156.1 90373mSCRMahabubnagar Dist., Telangana
16KSNKrishna (2)  03:35+1903:37+192m--2-146.849352mSCRDist Mahabubnagar, Telangana
16.1YDLPYadalapur (2)  03:40-03:40-  2-144.0 49351mSCRRaichur Dist, Karnataka
16.2CKChiksugar (2)X  03:48-03:48-  2-138.0 49363mSCRChiksugar, Karnataka
16.3YSYermaras  03:57-03:57-  2-130.5 49380mSCRState Highway 13, Karnataka
17RCRaichur Junction (3)  04:08+1204:10+132m12-121.661406mSCRRaichur, Karnataka
17.1MRCMarichethal  04:20-04:20-  2-111.8 61380mSCRState Highway 13, Karnataka
17.2MTUMatmari  04:27-04:27-  2-104.4 61371mSCRRaichur, Karnataka
17.3HPHHanumapura  04:35-04:35-  2-96.0 61344mSCRState Highway 61, Karnataka
18MALMMantralayam Road (3)X  04:38+1604:40+262m12-93.258335mSCRKurnool Tel: 08512-259830, Andhra Pradesh
18.1EGUIranagallu  04:48-04:48-  2-85.8 58358mSCRDevarabetta-518349, Andhra Pradesh
18.2KOKosigi (2)X  04:54-04:54-  2-80.1 58379mSCRKurnool Dist., Andhra Pradesh
18.3KGLKupgal (2)X  05:08-05:08-  2-66.4 58417mSCRKurnool Dist., Andhra Pradesh
18.4ESVIsivi (2)  05:16-05:16-  2-58.5 58418mSCRadoni, Andhra Pradesh
19ADAdoni (4)  05:23+2305:25+232m12-52.062420mSCRAdoni Tel: 08512-252368, Andhra Pradesh
19.1NRRNagarur (2)  05:34-05:34-  2-42.5 62427mSCRKurnool, Andhra Pradesh
19.2ASPAspari (2)  05:44-05:44-  2-31.8 62460mSCRChinnahoturu, Andhra Pradesh
19.3MGVMolagavalli (2)  05:55-05:55-  2-20.6 62470mSCRPeddahoturu, Andhra Pradesh
19.4NMLUNemakallu  06:01-06:01-  2-14.7 62467mSCRNH 67, Andhra Pradesh
19.5NLANancherla (2)X  06:06-06:06-  2-9.3 62477mSCRAlur, Andhra Pradesh
20GTL»Guntakal Junction (6)»06:15+2306:30+3115m520.075453mSCRGuntakal. Tel: 08552-227131/32, Andhra Pradesh
20.1TIMTimmanacherla  06:33-06:33-  23.2 75434mSCRGuntakal, Andhra Pradesh
20.2NKDONakkanadoddi  06:40-06:40-  212.2 75391mSCRRayalaseema Region, Andhra Pradesh
20.3PLUPatakottacheruvuX  06:44-06:44-  217.0 75381mSCRRayalaseema Region, Andhra Pradesh
21GYGooty Junction (2)  06:53+3906:55+402m--228.674370mSCRNH 7 Anantapur District, Andhra Pradesh
21.1GYJGooty Cabin  06:57-06:57-  230.7 74374mSCRBangalore-Hyderabad Highway, Andhra Pradesh
21.2JKOJakkalacheruvuX  07:05-07:05-  240.5 74334mSCRRayalaseema Region, Andhra Pradesh
21.3RLORayala Cheruvu (2)  07:14-07:14-  252.2 74292mSCRRayalacheruvu, Andhra Pradesh
21.4VMLVemulapadu  07:19-07:19-  257.9 74269mSCRSH 57, Andhra Pradesh
21.5JURJutturu  07:24-07:24-  264.2 74260mSCRTadipatri, Andhra Pradesh
21.6KMQAKomali  07:29-07:29-  270.5 74246mSCRPappuru Rd, Andhra Pradesh
22TUTadipatri (3)07:34+4607:36+462m--276.745243mSCRAnantapuram Dist, Andhra Pradesh
22.1CLPEChallavaripalli  07:45-07:45-  283.5 45229mSCRYallanur Rd, Andhra Pradesh
22.2VRNVanganur  07:53-07:53-  289.5 45222mSCRRayalaseema Region, Andhra Pradesh
22.3RLLRegadipalli  08:02-08:02-  296.6 45223mSCRKadapa (YSR District), Andhra Pradesh
23KDPKondapuram (2)X  08:13+3808:15+492m--2104.762214mSCRKadapa (YSR District), Andhra Pradesh
23.1MUMMangapatnam  08:24-08:24-  2113.8 62218mSCRKadapa (YSR District), Andhra Pradesh
23.2CINChintakunta  08:30-08:30-  2120.5 62218mSCRWind Mill Service Road, Andhra Pradesh
24MOOMuddanuru (3)X  08:38+4908:40+482m--2128.342194mSCRKadapa (YSR District), Andhra Pradesh
24.1KMHKalamalia  08:52-08:52-  2137.0 42178mSCRKadapa (YSR District), Andhra Pradesh
25YAYerraguntla (2)  09:03+4509:05+452m--2144.662171mSCRKadapa / Cuddapah (YSR District), Andhra Pradesh
25.1YGDYerragudipad  09:13-09:13-  2153.1 62149mSCRKadapa (YSR District), Andhra Pradesh
26KKMKamalapuram (2)X  09:20+4909:22+492m--2160.035141mSCRKadapa (YSR District), Andhra Pradesh
26.1GPYGangayapalleX  09:34-09:34-  2166.9 35137mSCRKadapa (YSR District), Andhra Pradesh
26.2KPUKrishnapuram  09:50-09:50-  2176.2 35133mSCRKadapa (YSR District), Andhra Pradesh
27HXKadapa (3)  10:03+3210:05+342m12183.757146mSCRCuddapah, Andhra Pradesh
27.1KNLPKanamalo Palle  10:17-10:17-  2194.6 57188mSCRKadapa (YSR District), Andhra Pradesh
27.2BKPTBhakarapet  10:23-10:23-  2200.2 57145mSCRKadapa (YSR District), Andhra Pradesh
27.3VNMOntimitta (2)  10:29-10:29-  2206.0 57134mSCRKadapa (YSR District), Andhra Pradesh
27.4MMPLMantapampalle (1)  10:40-10:40-  2216.8 57154mSCRKadapa (YSR District), Andhra Pradesh
28NRENandalurX  10:48+2810:50+282m--2224.249143mSCRRayalaseema Region, Andhra Pradesh
28.1HAQHastavaram  10:57-10:57-  2229.6 49143mSCRKadapa (YSR District), Andhra Pradesh
29RJPRazampeta (2)  11:03+3011:05+302m--2234.761144mSCRKadapa (YSR District), Andhra Pradesh
29.1PMTPullampet  11:14-11:14-  2243.9 61159mSCRKadapa (YSR District), Andhra Pradesh
29.2RPLReddipalle  11:18-11:18-  2247.7 61175mSCRDr. Y.S. Rajasekhar Reddy, Andhra Pradesh
29.3OBVPObulavaripalli (2)  11:25-11:25-  2255.1 61191mSCRRayalaseema Region, Andhra Pradesh
29.4ANEAnantarajupetX  11:31-11:31-  2261.0 61197mSCRRayalaseema Region, Andhra Pradesh
30KOUKoduru (2)  11:38+2911:40+302m--2268.323215mSCRKadapa (YSR District), Andhra Pradesh
30.1SFSettiguntaX  12:04-12:04-  2277.6 23214mSCRCoastal Andhra Region, Andhra Pradesh
30.2BLPEBalapalle  12:22-12:22-  2284.8 23246mSCRGangurajupodu, Andhra Pradesh
30.3MRMMamanduruO  12:48-12:48-  2294.6 23177mSCRChittoor, Andhra Pradesh
31RURenigunta Junction (5)X  13:25+213:45+320m12309.261113mSCRChittoor District, Andhra Pradesh
31.1PUDIPudi (2)  13:59-13:59-  2323.2 61158mSRChennai - Anantpur Rd, Andhra Pradesh
31.2SVFSri VenkataperuX  13:59-13:59-  2323.3 61159mSRChennai - Tiruttani - Renigunta Hwy, Andhra Pradesh
31.3TDKTaduku  14:01-14:01-  2325.7 61183mSRChennai - Anantpur Rd, Andhra Pradesh
32PUTPuttur (3)  14:08+1314:10+132m--2332.670149mSRPuttur, Andhra Pradesh
32.1VGAVepagunta  14:15-14:15-  2337.9 70143mSRNational Highway 205, Andhra Pradesh
32.2EKMEkambarakuppam  14:24-14:24-  2348.7 7080mSREkambarakuppam, Andhra Pradesh
32.3NGNagari  14:25-14:25-  2350.1 70118mSRRayalaseema Region, Andhra Pradesh
32.4VKZVenkatanarasimha Rajuvaripeta (1)  14:29-14:29-  2354.8 70126mSRChittor district, Andhra Pradesh
32.5POIPonpadi (3)  14:32-14:32-  2357.8 70103mSRNational Highway 205, Tamil Nadu
33TRTTiruttani (3)  14:38+1314:40+142m32365.04384mSRTiruttani, Tamil Nadu
33.1AJJNArakkonam North  14:56-14:56-  2376.3 4393mSRArakkonam, Tamil Nadu
34AJJArakkonam Junction (8)  15:00+1515:05+145m--2379.37991mSRArakkonam, Tamil Nadu
34.1PLMGPuliyamangalamX  15:10-15:10-  2385.5 7966mSRArakkonam, Tamil Nadu
34.2MSUMosur  15:11-15:11-  2387.0 7961mSRArakkonam, Tamil Nadu
34.3TOTiruvalangadu  15:13-15:13-  2389.7 7959mSRTiruvalangadu Rd, Tamil Nadu
34.4MAFManavurX  15:17-15:17-  2395.0 7958mSRTiruvalangadu Rd, Tamil Nadu
34.5SPAMSenji Panambakkam  15:19-15:19-  2397.5 7954mSRKadambathur Rd, Tamil Nadu
34.6KBTKadambattur (2)X  15:21-15:21-  2400.6 7950mSRKadambathur Bazaar Rd, Tamil Nadu
34.7EGTEgattur Halt  15:23-15:23-  2403.1 7950mSREgattur, Tamil Nadu
34.8TRLTiruvallur (6)  15:25-15:25-  2406.3 7950mSRTiruvallur, Tamil Nadu
34.9PTLRPutlur Halt  15:28-15:28-  2409.0 7944mSRPutlur, Tamil Nadu
34.10SVRSevvapet Road  15:30-15:30-  2412.3 7938mSRSevvapet, Tamil Nadu
34.11VEUVeppampattu  15:33-15:33-  2415.7 7939mSRChennai Tiruvallur High Rd, Tamil Nadu
34.12TITiruninravur (3)  15:35-15:35-  2418.9 7937mSRThirunindravur, Tamil Nadu
34.13NECNemilicherry Halt (2)  15:37-15:37-  2420.8 7931mSRNemilicherry, Tamil Nadu
34.14PRWSPattabiram West  15:37-15:37-  2421.5 7928mSRPattabiram, Tamil Nadu
34.15PABPattabiramX  15:38-15:38-  2423.0 7931mSRPattabiram, Tamil Nadu
34.16HCHindu College (2)  15:39-15:39-  2424.0 7928mSRPattabiram, Tamil Nadu
34.17AVDAvadi (4)  15:41-15:41-  2426.9 7928mSRPhone: 044-26555408, Tamil Nadu
34.18ANNRAnnanur (2)X  15:43-15:43-  2429.6 7920mSRAmbattur, Tamil Nadu
34.19TMVLTirumullaivayil (2)  15:44-15:44-  2430.7 7921mSRAmbattur, Tamil Nadu
34.20ABUAmbattur (3)  15:45-15:45-  2432.5 7923mSRAmbatturavadi, Tamil Nadu
34.21PVMPattaravakkam (2)  15:47-15:47-  2433.9 7915mSRAmbattur, Tamil Nadu
34.22KOTRKorattur (2)  15:48-15:48-  2435.9 7916mSRKorattur, Tamil Nadu
34.23VLKVillivakkam (4)  15:50-15:50-  2438.7 7911mSRchennai central, Tamil Nadu
34.24PEWPerambur Locomotive Works (3)X  15:51-15:51-  2440.4 7910mSRChennai, Tamil Nadu
34.25PCWPerambur Carriage Works (3)  15:53-15:53-  2441.8 7910mSRChennai, Tamil Nadu
35PERPerambur (4)  15:53+2215:55+222m--2442.577mSRChennai-600011 Phone: 044-25510359, Tamil Nadu
35.1VPYVyasarpadi  16:07-16:07-  2443.8 75mSRChennai, Tamil Nadu
35.2VJMVyasarpadi Jeeva (2)  16:08-16:08-  2443.8 75mSRChennai, Tamil Nadu
35.3BBQBasin Bridge Junction (7)X  16:25-16:25-  2445.8 76mSRChennai, Tamil Nadu
36MAS•Chennai Central (12)•  16:45+2-42448.0-9mSRChennai 600003, Tamil Nadu
Scroll to Top
Scroll to Bottom